AAL521 KJFK-KBOS
Flight info
| Callsign | AAL521 |
|---|---|
| Flight time | 0h 47m |
| Altitude | 21000 |
| Route | MERIT ROBUC3 |
| Aircraft | B38M/M-SDE1FGHILORVWXY/HB1 |
Departure
| Time | 2026-05-06 17:23 |
|---|---|
| Airport | John F. Kennedy International Airport (KJFK) |
Arrival
| Time | 2026-05-06 18:11 |
|---|---|
| Airport | Boston Logan International Airport (KBOS) |
| Time | Latitude | Longitude | Altitude | Speed | Heading |
|---|---|---|---|---|---|
| 2026-05-06 16:44 | 40.65061 | -73.79304 | 18 ft | 0 kts | 150° |
| 2026-05-06 17:01 | 40.65067 | -73.79308 | 19 ft | 4 kts | 150° |
| 2026-05-06 17:01 | 40.65087 | -73.79323 | 19 ft | 4 kts | 140° |
| 2026-05-06 17:01 | 40.65098 | -73.79348 | 20 ft | 4 kts | 80° |
| 2026-05-06 17:02 | 40.65089 | -73.79376 | 19 ft | 1 kts | 60° |
| 2026-05-06 17:02 | 40.65087 | -73.79381 | 20 ft | 0 kts | 60° |
| 2026-05-06 17:11 | 40.65090 | -73.79372 | 20 ft | 3 kts | 69° |
| 2026-05-06 17:11 | 40.65106 | -73.79335 | 18 ft | 5 kts | 58° |
| 2026-05-06 17:12 | 40.65125 | -73.79311 | 18 ft | 3 kts | 18° |
| 2026-05-06 17:12 | 40.65175 | -73.79308 | 18 ft | 12 kts | 5° |
| 2026-05-06 17:12 | 40.65205 | -73.79251 | 18 ft | 0 kts | 83° |
| 2026-05-06 17:13 | 40.65201 | -73.79215 | 18 ft | 6 kts | 102° |
| 2026-05-06 17:13 | 40.65192 | -73.79154 | 19 ft | 7 kts | 105° |
| 2026-05-06 17:13 | 40.65176 | -73.79087 | 20 ft | 8 kts | 108° |
| 2026-05-06 17:14 | 40.65151 | -73.78976 | 18 ft | 17 kts | 103° |
| 2026-05-06 17:14 | 40.65140 | -73.78809 | 18 ft | 19 kts | 83° |
| 2026-05-06 17:14 | 40.65185 | -73.78654 | 20 ft | 17 kts | 57° |
| 2026-05-06 17:14 | 40.65242 | -73.78530 | 18 ft | 17 kts | 60° |
| 2026-05-06 17:15 | 40.65261 | -73.78379 | 19 ft | 17 kts | 107° |
| 2026-05-06 17:15 | 40.65203 | -73.78241 | 18 ft | 18 kts | 122° |
| 2026-05-06 17:15 | 40.65140 | -73.78098 | 18 ft | 17 kts | 120° |
| 2026-05-06 17:15 | 40.65129 | -73.77996 | 20 ft | 8 kts | 47° |
| 2026-05-06 17:16 | 40.65177 | -73.77953 | 20 ft | 9 kts | 32° |
| 2026-05-06 17:16 | 40.65240 | -73.77903 | 19 ft | 12 kts | 31° |
| 2026-05-06 17:16 | 40.65302 | -73.77855 | 19 ft | 8 kts | 31° |
| 2026-05-06 17:16 | 40.65336 | -73.77808 | 19 ft | 7 kts | 80° |
| 2026-05-06 17:17 | 40.65314 | -73.77722 | 19 ft | 15 kts | 118° |
| 2026-05-06 17:17 | 40.65242 | -73.77561 | 18 ft | 25 kts | 120° |
| 2026-05-06 17:17 | 40.65142 | -73.77347 | 18 ft | 28 kts | 122° |
| 2026-05-06 17:17 | 40.65044 | -73.77121 | 19 ft | 29 kts | 121° |
| 2026-05-06 17:18 | 40.64944 | -73.76903 | 19 ft | 21 kts | 120° |
| 2026-05-06 17:18 | 40.64877 | -73.76760 | 19 ft | 9 kts | 121° |
| 2026-05-06 17:18 | 40.64898 | -73.76686 | 20 ft | 10 kts | 41° |
| 2026-05-06 17:18 | 40.64987 | -73.76615 | 18 ft | 23 kts | 30° |
| 2026-05-06 17:19 | 40.65092 | -73.76530 | 19 ft | 6 kts | 51° |
| 2026-05-06 17:19 | 40.65099 | -73.76508 | 18 ft | 0 kts | 77° |
| 2026-05-06 17:19 | 40.65100 | -73.76505 | 18 ft | 3 kts | 81° |
| 2026-05-06 17:19 | 40.65090 | -73.76456 | 20 ft | 3 kts | 115° |
| 2026-05-06 17:20 | 40.65090 | -73.76455 | 20 ft | 0 kts | 115° |
| 2026-05-06 17:20 | 40.65089 | -73.76452 | 19 ft | 4 kts | 115° |
| 2026-05-06 17:21 | 40.65062 | -73.76388 | 18 ft | 9 kts | 127° |
| 2026-05-06 17:21 | 40.65011 | -73.76365 | 18 ft | 7 kts | 196° |
| 2026-05-06 17:21 | 40.65001 | -73.76372 | 18 ft | 0 kts | 208° |
| 2026-05-06 17:23 | 40.64834 | -73.76500 | 18 ft | 70 kts | 211° |
| 2026-05-06 17:23 | 40.64182 | -73.77010 | 22 ft | 145 kts | 208° |
| 2026-05-06 17:23 | 40.63222 | -73.77773 | 571 ft | 173 kts | 211° |
| 2026-05-06 17:23 | 40.62130 | -73.78642 | 1473 ft | 190 kts | 209° |
| 2026-05-06 17:24 | 40.60916 | -73.79440 | 2384 ft | 204 kts | 208° |
| 2026-05-06 17:24 | 40.59650 | -73.80213 | 3518 ft | 202 kts | 208° |
| 2026-05-06 17:24 | 40.58300 | -73.80840 | 4070 ft | 215 kts | 193° |
| 2026-05-06 17:24 | 40.56808 | -73.80489 | 4587 ft | 228 kts | 159° |
| 2026-05-06 17:25 | 40.55705 | -73.78965 | 5911 ft | 242 kts | 129° |
| 2026-05-06 17:25 | 40.55213 | -73.76723 | 6765 ft | 274 kts | 100° |
| 2026-05-06 17:25 | 40.55528 | -73.74124 | 7440 ft | 306 kts | 72° |
| 2026-05-06 17:25 | 40.56722 | -73.71702 | 8141 ft | 328 kts | 43° |
| 2026-05-06 17:26 | 40.58654 | -73.70146 | 9158 ft | 328 kts | 20° |
| 2026-05-06 17:26 | 40.60726 | -73.68784 | 10046 ft | 338 kts | 27° |
| 2026-05-06 17:26 | 40.62803 | -73.67275 | 10683 ft | 354 kts | 26° |
| 2026-05-06 17:26 | 40.65059 | -73.65656 | 11163 ft | 374 kts | 26° |
| 2026-05-06 17:27 | 40.67402 | -73.63986 | 11688 ft | 389 kts | 25° |
| 2026-05-06 17:27 | 40.69821 | -73.62272 | 12360 ft | 399 kts | 25° |
| 2026-05-06 17:27 | 40.72241 | -73.60568 | 13262 ft | 401 kts | 25° |
| 2026-05-06 17:27 | 40.74717 | -73.58827 | 14015 ft | 407 kts | 24° |
| 2026-05-06 17:28 | 40.77224 | -73.57064 | 14790 ft | 410 kts | 24° |
| 2026-05-06 17:28 | 40.79751 | -73.55286 | 15516 ft | 413 kts | 24° |
| 2026-05-06 17:28 | 40.82281 | -73.53504 | 16251 ft | 417 kts | 24° |
| 2026-05-06 17:28 | 40.84856 | -73.51689 | 16936 ft | 421 kts | 23° |
| 2026-05-06 17:29 | 40.87452 | -73.49858 | 17622 ft | 424 kts | 23° |
| 2026-05-06 17:29 | 40.90062 | -73.48016 | 18282 ft | 427 kts | 23° |
| 2026-05-06 17:29 | 40.92695 | -73.46154 | 18870 ft | 431 kts | 23° |
| 2026-05-06 17:29 | 40.95345 | -73.44280 | 19463 ft | 434 kts | 23° |
| 2026-05-06 17:30 | 40.98022 | -73.42385 | 20056 ft | 437 kts | 23° |
| 2026-05-06 17:30 | 41.00713 | -73.40478 | 20624 ft | 442 kts | 23° |
| 2026-05-06 17:30 | 41.03433 | -73.38549 | 20842 ft | 450 kts | 23° |
| 2026-05-06 17:30 | 41.06234 | -73.36558 | 20856 ft | 464 kts | 24° |
| 2026-05-06 17:31 | 41.09111 | -73.34509 | 20865 ft | 476 kts | 24° |
| 2026-05-06 17:31 | 41.12067 | -73.32405 | 20864 ft | 485 kts | 24° |
| 2026-05-06 17:31 | 41.15053 | -73.30277 | 20873 ft | 489 kts | 24° |
| 2026-05-06 17:31 | 41.18060 | -73.28135 | 20903 ft | 490 kts | 24° |
| 2026-05-06 17:32 | 41.21023 | -73.26024 | 20897 ft | 490 kts | 24° |
| 2026-05-06 17:32 | 41.24028 | -73.23880 | 20897 ft | 491 kts | 24° |
| 2026-05-06 17:32 | 41.27024 | -73.21741 | 20893 ft | 491 kts | 24° |
| 2026-05-06 17:32 | 41.30032 | -73.19590 | 20896 ft | 490 kts | 24° |
| 2026-05-06 17:33 | 41.32997 | -73.17338 | 20888 ft | 494 kts | 31° |
| 2026-05-06 17:33 | 41.35581 | -73.14302 | 20892 ft | 499 kts | 47° |
| 2026-05-06 17:33 | 41.37578 | -73.10527 | 20893 ft | 501 kts | 62° |
| 2026-05-06 17:33 | 41.38834 | -73.06220 | 20879 ft | 500 kts | 78° |
| 2026-05-06 17:34 | 41.39426 | -73.01797 | 20922 ft | 499 kts | 83° |
| 2026-05-06 17:34 | 41.39957 | -72.97254 | 20898 ft | 499 kts | 83° |
| 2026-05-06 17:34 | 41.40469 | -72.92669 | 20884 ft | 499 kts | 83° |
| 2026-05-06 17:34 | 41.40963 | -72.88101 | 20904 ft | 499 kts | 84° |
| 2026-05-06 17:35 | 41.41451 | -72.83526 | 20897 ft | 498 kts | 84° |
| 2026-05-06 17:35 | 41.41938 | -72.78944 | 20897 ft | 498 kts | 84° |
| 2026-05-06 17:35 | 41.42420 | -72.74383 | 20908 ft | 498 kts | 84° |
| 2026-05-06 17:36 | 41.43382 | -72.65236 | 20908 ft | 498 kts | 84° |
| 2026-05-06 17:36 | 41.43853 | -72.60740 | 20916 ft | 498 kts | 84° |
| 2026-05-06 17:36 | 41.44327 | -72.56174 | 20901 ft | 498 kts | 84° |
| 2026-05-06 17:36 | 41.44803 | -72.51597 | 20917 ft | 498 kts | 84° |
| 2026-05-06 17:37 | 41.45274 | -72.47038 | 20930 ft | 497 kts | 84° |
| 2026-05-06 17:37 | 41.45745 | -72.42464 | 20919 ft | 497 kts | 84° |
| 2026-05-06 17:37 | 41.46211 | -72.37909 | 20906 ft | 497 kts | 84° |
| 2026-05-06 17:37 | 41.46678 | -72.33338 | 20913 ft | 497 kts | 84° |
| 2026-05-06 17:38 | 41.47141 | -72.28795 | 20892 ft | 497 kts | 84° |
| 2026-05-06 17:38 | 41.47611 | -72.24228 | 20872 ft | 498 kts | 82° |
| 2026-05-06 17:38 | 41.48552 | -72.19783 | 20875 ft | 501 kts | 67° |
| 2026-05-06 17:38 | 41.50003 | -72.15537 | 20910 ft | 503 kts | 64° |
| 2026-05-06 17:39 | 41.51496 | -72.11319 | 20911 ft | 503 kts | 64° |
| 2026-05-06 17:39 | 41.53009 | -72.07110 | 20897 ft | 503 kts | 64° |
| 2026-05-06 17:39 | 41.54535 | -72.02910 | 20901 ft | 503 kts | 64° |
| 2026-05-06 17:39 | 41.55940 | -71.98675 | 20907 ft | 491 kts | 68° |
| 2026-05-06 17:40 | 41.57192 | -71.94541 | 20767 ft | 476 kts | 68° |
| 2026-05-06 17:40 | 41.58452 | -71.90447 | 20057 ft | 477 kts | 68° |
| 2026-05-06 17:40 | 41.59700 | -71.86340 | 19374 ft | 477 kts | 69° |
| 2026-05-06 17:40 | 41.60917 | -71.82203 | 18733 ft | 477 kts | 70° |
| 2026-05-06 17:41 | 41.62131 | -71.78085 | 18234 ft | 473 kts | 70° |
| 2026-05-06 17:41 | 41.63308 | -71.74097 | 17938 ft | 462 kts | 70° |
| 2026-05-06 17:41 | 41.64487 | -71.70097 | 17715 ft | 451 kts | 70° |
| 2026-05-06 17:41 | 41.65607 | -71.66294 | 17498 ft | 441 kts | 70° |
| 2026-05-06 17:42 | 41.66716 | -71.62516 | 17267 ft | 432 kts | 70° |
| 2026-05-06 17:42 | 41.67802 | -71.58819 | 17005 ft | 424 kts | 70° |
| 2026-05-06 17:42 | 41.68882 | -71.55129 | 16478 ft | 424 kts | 71° |
| 2026-05-06 17:42 | 41.69954 | -71.51464 | 16062 ft | 421 kts | 71° |
| 2026-05-06 17:43 | 41.71016 | -71.47825 | 15634 ft | 419 kts | 71° |
| 2026-05-06 17:43 | 41.72074 | -71.44203 | 15218 ft | 417 kts | 71° |
| 2026-05-06 17:43 | 41.73388 | -71.40755 | 14839 ft | 415 kts | 61° |
| 2026-05-06 17:43 | 41.74829 | -71.37428 | 14509 ft | 410 kts | 62° |
| 2026-05-06 17:44 | 41.76228 | -71.34162 | 14258 ft | 403 kts | 62° |
| 2026-05-06 17:44 | 41.77612 | -71.30925 | 13979 ft | 398 kts | 62° |
| 2026-05-06 17:44 | 41.78978 | -71.27724 | 13634 ft | 394 kts | 63° |
| 2026-05-06 17:44 | 41.80334 | -71.24542 | 13240 ft | 392 kts | 63° |
| 2026-05-06 17:45 | 41.81679 | -71.21382 | 12921 ft | 388 kts | 63° |
| 2026-05-06 17:45 | 41.83007 | -71.18261 | 12613 ft | 383 kts | 63° |
| 2026-05-06 17:45 | 41.84302 | -71.15213 | 12307 ft | 379 kts | 63° |
| 2026-05-06 17:45 | 41.85618 | -71.12126 | 12035 ft | 375 kts | 63° |
| 2026-05-06 17:46 | 41.86920 | -71.09125 | 11798 ft | 370 kts | 63° |
| 2026-05-06 17:46 | 41.88181 | -71.06211 | 11580 ft | 365 kts | 63° |
| 2026-05-06 17:46 | 41.89464 | -71.03237 | 11352 ft | 361 kts | 63° |
| 2026-05-06 17:46 | 41.90699 | -71.00374 | 11121 ft | 356 kts | 64° |
| 2026-05-06 17:47 | 41.91929 | -70.97519 | 10913 ft | 350 kts | 64° |
| 2026-05-06 17:47 | 41.93144 | -70.94696 | 10720 ft | 349 kts | 64° |
| 2026-05-06 17:47 | 41.94362 | -70.91862 | 10512 ft | 349 kts | 64° |
| 2026-05-06 17:47 | 41.95571 | -70.89048 | 10294 ft | 346 kts | 64° |
| 2026-05-06 17:48 | 41.96764 | -70.86268 | 10045 ft | 340 kts | 65° |
| 2026-05-06 17:48 | 41.97933 | -70.83540 | 9846 ft | 334 kts | 65° |
| 2026-05-06 17:48 | 41.99086 | -70.80849 | 9647 ft | 333 kts | 65° |
| 2026-05-06 17:48 | 42.00241 | -70.78154 | 9475 ft | 333 kts | 65° |
| 2026-05-06 17:49 | 42.01494 | -70.75523 | 9202 ft | 337 kts | 53° |
| 2026-05-06 17:49 | 42.03070 | -70.73170 | 8936 ft | 338 kts | 50° |
| 2026-05-06 17:49 | 42.04659 | -70.70842 | 8682 ft | 336 kts | 50° |
| 2026-05-06 17:49 | 42.06224 | -70.68521 | 8476 ft | 334 kts | 50° |
| 2026-05-06 17:50 | 42.07771 | -70.66214 | 8278 ft | 332 kts | 50° |
| 2026-05-06 17:50 | 42.09293 | -70.63936 | 8089 ft | 329 kts | 50° |
| 2026-05-06 17:50 | 42.11055 | -70.61984 | 7811 ft | 329 kts | 25° |
| 2026-05-06 17:50 | 42.13191 | -70.61014 | 7494 ft | 322 kts | 7° |
| 2026-05-06 17:51 | 42.15383 | -70.60377 | 7185 ft | 321 kts | 7° |
| 2026-05-06 17:51 | 42.17570 | -70.59752 | 6884 ft | 321 kts | 7° |
| 2026-05-06 17:51 | 42.19756 | -70.59135 | 6599 ft | 319 kts | 7° |
| 2026-05-06 17:51 | 42.21895 | -70.58534 | 6278 ft | 317 kts | 7° |
| 2026-05-06 17:52 | 42.24057 | -70.57930 | 5932 ft | 313 kts | 7° |
| 2026-05-06 17:52 | 42.26178 | -70.57338 | 5633 ft | 308 kts | 7° |
| 2026-05-06 17:52 | 42.28262 | -70.56755 | 5349 ft | 304 kts | 7° |
| 2026-05-06 17:52 | 42.30293 | -70.56226 | 5106 ft | 295 kts | 360° |
| 2026-05-06 17:53 | 42.32200 | -70.56524 | 5081 ft | 261 kts | 330° |
| 2026-05-06 17:53 | 42.33667 | -70.57656 | 5056 ft | 229 kts | 309° |
| 2026-05-06 17:53 | 42.34862 | -70.58958 | 5062 ft | 215 kts | 306° |
| 2026-05-06 17:53 | 42.35985 | -70.60266 | 5068 ft | 211 kts | 304° |
| 2026-05-06 17:54 | 42.37067 | -70.61582 | 5058 ft | 208 kts | 303° |
| 2026-05-06 17:54 | 42.38122 | -70.62906 | 5037 ft | 206 kts | 302° |
| 2026-05-06 17:54 | 42.39161 | -70.64235 | 5021 ft | 205 kts | 301° |
| 2026-05-06 17:54 | 42.40190 | -70.65564 | 5015 ft | 205 kts | 301° |
| 2026-05-06 17:55 | 42.41219 | -70.66902 | 5005 ft | 205 kts | 301° |
| 2026-05-06 17:55 | 42.42245 | -70.68241 | 5003 ft | 205 kts | 301° |
| 2026-05-06 17:55 | 42.43270 | -70.69585 | 5002 ft | 205 kts | 301° |
| 2026-05-06 17:55 | 42.44288 | -70.70923 | 5003 ft | 205 kts | 301° |
| 2026-05-06 17:56 | 42.45312 | -70.72271 | 5002 ft | 205 kts | 301° |
| 2026-05-06 17:56 | 42.46334 | -70.73618 | 5000 ft | 205 kts | 301° |
| 2026-05-06 17:56 | 42.47357 | -70.74966 | 5002 ft | 205 kts | 301° |
| 2026-05-06 17:56 | 42.48032 | -70.75857 | 5002 ft | 205 kts | 301° |
| 2026-05-06 17:57 | 42.49051 | -70.77203 | 4989 ft | 204 kts | 301° |
| 2026-05-06 17:57 | 42.50067 | -70.78544 | 4991 ft | 204 kts | 301° |
| 2026-05-06 17:57 | 42.51087 | -70.79888 | 4995 ft | 205 kts | 302° |
| 2026-05-06 17:57 | 42.52361 | -70.80934 | 4969 ft | 227 kts | 329° |
| 2026-05-06 17:58 | 42.53989 | -70.81187 | 4984 ft | 247 kts | 358° |
| 2026-05-06 17:58 | 42.55679 | -70.80589 | 5016 ft | 255 kts | 14° |
| 2026-05-06 17:58 | 42.57351 | -70.79777 | 5034 ft | 255 kts | 14° |
| 2026-05-06 17:58 | 42.59018 | -70.78960 | 5016 ft | 255 kts | 14° |
| 2026-05-06 17:59 | 42.60686 | -70.78143 | 4993 ft | 255 kts | 13° |
| 2026-05-06 17:59 | 42.62359 | -70.77318 | 4991 ft | 256 kts | 14° |
| 2026-05-06 17:59 | 42.64037 | -70.76464 | 5004 ft | 257 kts | 15° |
| 2026-05-06 17:59 | 42.65706 | -70.75600 | 4998 ft | 257 kts | 15° |
| 2026-05-06 18:00 | 42.67357 | -70.74750 | 4978 ft | 257 kts | 15° |
| 2026-05-06 18:00 | 42.69022 | -70.73890 | 4988 ft | 257 kts | 15° |
| 2026-05-06 18:00 | 42.70697 | -70.73025 | 5002 ft | 258 kts | 15° |
| 2026-05-06 18:00 | 42.72385 | -70.72226 | 4985 ft | 253 kts | 3° |
| 2026-05-06 18:01 | 42.74026 | -70.72465 | 4930 ft | 229 kts | 319° |
| 2026-05-06 18:01 | 42.75041 | -70.73874 | 4968 ft | 196 kts | 277° |
| 2026-05-06 18:01 | 42.75076 | -70.75566 | 4992 ft | 174 kts | 245° |
| 2026-05-06 18:01 | 42.74559 | -70.77051 | 4999 ft | 174 kts | 233° |
| 2026-05-06 18:02 | 42.73764 | -70.78279 | 5000 ft | 173 kts | 219° |
| 2026-05-06 18:02 | 42.72711 | -70.79088 | 5004 ft | 175 kts | 211° |
| 2026-05-06 18:02 | 42.71642 | -70.79878 | 4980 ft | 174 kts | 212° |
| 2026-05-06 18:02 | 42.70582 | -70.80671 | 4976 ft | 174 kts | 212° |
| 2026-05-06 18:03 | 42.69522 | -70.81469 | 4973 ft | 174 kts | 212° |
| 2026-05-06 18:03 | 42.68476 | -70.82256 | 4770 ft | 172 kts | 212° |
| 2026-05-06 18:03 | 42.67426 | -70.83052 | 4478 ft | 173 kts | 212° |
| 2026-05-06 18:03 | 42.66374 | -70.83851 | 4157 ft | 173 kts | 212° |
| 2026-05-06 18:04 | 42.65330 | -70.84644 | 3995 ft | 172 kts | 213° |
| 2026-05-06 18:04 | 42.64272 | -70.85448 | 3989 ft | 175 kts | 212° |
| 2026-05-06 18:04 | 42.63214 | -70.86253 | 3988 ft | 174 kts | 212° |
| 2026-05-06 18:04 | 42.62172 | -70.87045 | 3988 ft | 173 kts | 212° |
| 2026-05-06 18:05 | 42.61119 | -70.87845 | 3980 ft | 173 kts | 212° |
| 2026-05-06 18:05 | 42.60061 | -70.88650 | 3984 ft | 177 kts | 212° |
| 2026-05-06 18:05 | 42.58955 | -70.89402 | 3989 ft | 178 kts | 207° |
| 2026-05-06 18:05 | 42.57809 | -70.90041 | 3992 ft | 178 kts | 206° |
| 2026-05-06 18:06 | 42.56616 | -70.90672 | 3877 ft | 180 kts | 205° |
| 2026-05-06 18:06 | 42.55481 | -70.91252 | 3672 ft | 179 kts | 205° |
| 2026-05-06 18:06 | 42.54310 | -70.91838 | 3449 ft | 180 kts | 204° |
| 2026-05-06 18:06 | 42.53131 | -70.92422 | 3231 ft | 181 kts | 203° |
| 2026-05-06 18:07 | 42.51941 | -70.93008 | 3013 ft | 182 kts | 202° |
| 2026-05-06 18:07 | 42.50763 | -70.93585 | 2776 ft | 177 kts | 202° |
| 2026-05-06 18:07 | 42.49611 | -70.94145 | 2537 ft | 172 kts | 202° |
| 2026-05-06 18:07 | 42.48529 | -70.94674 | 2334 ft | 161 kts | 202° |
| 2026-05-06 18:08 | 42.47496 | -70.95177 | 2155 ft | 155 kts | 201° |
| 2026-05-06 18:08 | 42.46486 | -70.95667 | 1959 ft | 154 kts | 200° |
| 2026-05-06 18:08 | 42.45485 | -70.96153 | 1744 ft | 155 kts | 200° |
| 2026-05-06 18:08 | 42.44526 | -70.96619 | 1537 ft | 137 kts | 200° |
| 2026-05-06 18:09 | 42.43706 | -70.97017 | 1389 ft | 113 kts | 200° |
| 2026-05-06 18:09 | 42.43005 | -70.97357 | 1216 ft | 104 kts | 200° |
| 2026-05-06 18:09 | 42.42284 | -70.97716 | 881 ft | 119 kts | 202° |
| 2026-05-06 18:09 | 42.41462 | -70.98133 | 810 ft | 126 kts | 200° |
| 2026-05-06 18:10 | 42.40627 | -70.98504 | 616 ft | 134 kts | 200° |
| 2026-05-06 18:10 | 42.39715 | -70.98955 | 486 ft | 140 kts | 200° |
| 2026-05-06 18:10 | 42.38836 | -70.99383 | 333 ft | 133 kts | 198° |
| 2026-05-06 18:10 | 42.37948 | -70.99815 | 173 ft | 129 kts | 199° |
| 2026-05-06 18:11 | 42.37138 | -71.00205 | 46 ft | 125 kts | 198° |
| 2026-05-06 18:11 | 42.36462 | -71.00523 | 28 ft | 68 kts | 200° |
| 2026-05-06 18:11 | 42.36139 | -71.00689 | 29 ft | 46 kts | 199° |
| 2026-05-06 18:11 | 42.35920 | -71.00910 | 28 ft | 26 kts | 231° |
| 2026-05-06 18:12 | 42.35899 | -71.00943 | 28 ft | 0 kts | 229° |
| 2026-05-06 18:12 | 42.35897 | -71.00948 | 28 ft | 2 kts | 229° |
| 2026-05-06 18:12 | 42.35884 | -71.00967 | 28 ft | 4 kts | 229° |
| 2026-05-06 18:12 | 42.35861 | -71.01004 | 28 ft | 7 kts | 232° |
| 2026-05-06 18:13 | 42.35834 | -71.01115 | 28 ft | 19 kts | 269° |
| 2026-05-06 18:13 | 42.35849 | -71.01305 | 28 ft | 20 kts | 278° |
| 2026-05-06 18:13 | 42.35876 | -71.01503 | 28 ft | 22 kts | 282° |
| 2026-05-06 18:13 | 42.35911 | -71.01677 | 28 ft | 12 kts | 303° |
| 2026-05-06 18:14 | 42.35962 | -71.01743 | 28 ft | 6 kts | 341° |